createdAt,value
2018-12-01T00:00:35.093Z,0.00
2018-12-01T00:01:35.098Z,0.00
2018-12-01T00:02:35.660Z,0.00
2018-12-01T00:03:35.113Z,0.00
2018-12-01T00:04:35.119Z,0.00
2018-12-01T00:05:35.127Z,0.00
2018-12-01T00:06:35.129Z,0.00
2018-12-01T00:07:35.136Z,0.00
2018-12-01T00:08:35.145Z,0.00
2018-12-01T00:09:35.150Z,0.00
2018-12-01T00:10:35.154Z,0.00
2018-12-01T00:11:35.167Z,0.00
2018-12-01T00:12:35.172Z,0.00
2018-12-01T00:13:35.178Z,0.00
2018-12-01T00:14:35.184Z,0.00
2018-12-01T00:15:35.188Z,0.00
2018-12-01T00:16:35.194Z,0.00
2018-12-01T00:17:35.199Z,0.00
2018-12-01T00:18:35.207Z,0.00
2018-12-01T00:19:35.213Z,0.00
2018-12-01T00:20:35.224Z,0.00
2018-12-01T00:21:35.229Z,0.00
2018-12-01T00:22:35.232Z,0.00
2018-12-01T00:23:35.240Z,0.00
2018-12-01T00:24:35.245Z,0.00
2018-12-01T00:25:35.251Z,0.00
2018-12-01T00:26:35.257Z,0.00
2018-12-01T00:27:35.267Z,0.00
2018-12-01T00:28:35.272Z,0.00
2018-12-01T00:29:35.276Z,0.00
2018-12-01T00:30:35.283Z,0.00
2018-12-01T00:31:35.290Z,0.00
2018-12-01T00:32:35.304Z,0.00
2018-12-01T00:33:35.303Z,0.00
2018-12-01T00:34:35.310Z,0.00
2018-12-01T00:35:35.318Z,0.00
2018-12-01T00:36:35.323Z,0.00
2018-12-01T00:37:35.327Z,0.00
2018-12-01T00:38:35.335Z,0.00
2018-12-01T00:39:35.342Z,0.00
2018-12-01T00:40:35.347Z,0.00
2018-12-01T00:41:35.353Z,0.00
2018-12-01T00:42:35.360Z,0.00
2018-12-01T00:43:35.367Z,0.00
2018-12-01T00:44:35.375Z,0.00
2018-12-01T00:45:35.379Z,0.00
2018-12-01T00:46:35.386Z,0.00
2018-12-01T00:47:35.398Z,0.00
2018-12-01T00:48:35.400Z,0.00
2018-12-01T00:49:35.406Z,0.00
2018-12-01T00:50:35.411Z,0.00
2018-12-01T00:51:35.420Z,0.00
2018-12-01T00:52:35.431Z,0.00
2018-12-01T00:53:35.432Z,0.00
2018-12-01T00:54:35.437Z,0.00
2018-12-01T00:55:35.446Z,0.00
2018-12-01T00:56:35.452Z,0.00
2018-12-01T00:57:35.456Z,0.00
2018-12-01T00:58:35.464Z,0.00
2018-12-01T00:59:35.474Z,0.00
2018-12-01T01:00:35.476Z,0.00
2018-12-01T01:01:35.482Z,0.00
2018-12-01T01:02:35.489Z,0.00
2018-12-01T01:03:35.497Z,0.00
2018-12-01T01:04:35.502Z,0.00
2018-12-01T01:05:35.508Z,0.00
2018-12-01T01:06:35.514Z,0.00
2018-12-01T01:07:35.522Z,0.00
2018-12-01T01:08:35.530Z,0.00
2018-12-01T01:09:35.536Z,0.00
2018-12-01T01:10:35.540Z,0.00
2018-12-01T01:11:35.549Z,0.00
2018-12-01T01:12:35.560Z,0.00
2018-12-01T01:13:35.563Z,0.00
2018-12-01T01:14:35.568Z,0.00
2018-12-01T01:15:35.575Z,0.00
2018-12-01T01:16:35.588Z,0.00
2018-12-01T01:17:35.592Z,0.00
2018-12-01T01:18:35.595Z,0.00
2018-12-01T01:19:35.599Z,0.00
2018-12-01T01:20:35.607Z,0.00
2018-12-01T01:21:35.615Z,0.00
2018-12-01T01:22:35.621Z,0.00
2018-12-01T01:23:35.631Z,0.00
2018-12-01T01:24:35.633Z,0.00
2018-12-01T01:25:35.641Z,0.00
2018-12-01T01:26:35.648Z,0.00
2018-12-01T01:27:35.656Z,0.00
2018-12-01T01:28:35.661Z,0.00
2018-12-01T01:29:35.666Z,0.00
2018-12-01T01:30:35.674Z,0.00
2018-12-01T01:31:35.681Z,0.00
2018-12-01T01:32:35.696Z,0.00
2018-12-01T01:33:35.697Z,0.00
2018-12-01T01:34:35.699Z,0.00
2018-12-01T01:35:35.706Z,0.00
2018-12-01T01:36:35.713Z,0.00
2018-12-01T01:37:35.720Z,0.00
2018-12-01T01:38:35.726Z,0.00
2018-12-01T01:39:35.732Z,0.00
2018-12-01T01:40:35.739Z,0.00
2018-12-01T01:41:35.748Z,0.00
2018-12-01T01:42:35.752Z,0.00
2018-12-01T01:43:35.763Z,0.00
2018-12-01T01:44:35.765Z,0.00
2018-12-01T01:45:35.770Z,0.00
2018-12-01T01:46:35.778Z,0.00
2018-12-01T01:47:35.787Z,0.00
2018-12-01T01:48:35.794Z,0.00
2018-12-01T01:49:35.798Z,0.00
2018-12-01T01:50:35.803Z,0.00
2018-12-01T01:51:35.816Z,0.00
2018-12-01T01:52:35.819Z,0.00
2018-12-01T01:53:35.823Z,0.00
2018-12-01T01:54:35.831Z,0.00
2018-12-01T01:55:35.835Z,0.00
2018-12-01T01:56:35.843Z,0.00
2018-12-01T01:57:35.850Z,0.00
2018-12-01T01:58:35.862Z,0.00
2018-12-01T01:59:35.861Z,0.00
2018-12-01T02:00:35.876Z,0.00
2018-12-01T02:01:35.874Z,0.00
2018-12-01T02:02:35.882Z,0.00
2018-12-01T02:03:35.888Z,0.00
2018-12-01T02:04:35.898Z,0.00
2018-12-01T02:05:35.902Z,0.00
2018-12-01T02:06:35.906Z,0.00
2018-12-01T02:07:35.914Z,0.00
2018-12-01T02:08:35.921Z,0.00
2018-12-01T02:09:35.927Z,0.00
2018-12-01T02:10:35.931Z,0.00
2018-12-01T02:11:35.940Z,0.00
2018-12-01T02:12:35.943Z,0.00
2018-12-01T02:13:35.948Z,0.00
2018-12-01T02:14:35.956Z,0.00
2018-12-01T02:15:35.964Z,0.00
2018-12-01T02:16:35.972Z,0.00
2018-12-01T02:17:35.973Z,0.00
2018-12-01T02:18:35.980Z,0.00
2018-12-01T02:19:35.987Z,0.00
2018-12-01T02:20:36.000Z,0.00
2018-12-01T02:21:36.004Z,0.00
2018-12-01T02:22:36.005Z,0.00
2018-12-01T02:23:36.017Z,0.00
2018-12-01T02:24:36.018Z,0.00
2018-12-01T02:25:36.026Z,0.00
2018-12-01T02:26:36.031Z,0.00
2018-12-01T02:27:36.035Z,0.00
2018-12-01T02:28:36.045Z,0.00
2018-12-01T02:29:36.048Z,0.00
2018-12-01T02:30:36.056Z,0.00
2018-12-01T02:31:36.062Z,0.00
2018-12-01T02:32:36.070Z,0.00
2018-12-01T02:33:36.074Z,0.00
2018-12-01T02:34:36.082Z,0.00
2018-12-01T02:35:36.088Z,0.00
2018-12-01T02:36:36.094Z,0.00
2018-12-01T02:37:36.103Z,0.00
2018-12-01T02:38:36.109Z,0.00
2018-12-01T02:39:36.115Z,0.00
2018-12-01T02:40:36.122Z,0.00
2018-12-01T02:41:36.125Z,0.00
2018-12-01T02:42:36.129Z,0.00
2018-12-01T02:43:36.142Z,0.00
2018-12-01T02:44:36.144Z,0.00
2018-12-01T02:45:36.148Z,0.00
2018-12-01T02:46:36.156Z,0.00
2018-12-01T02:47:36.167Z,0.00
2018-12-01T02:48:36.169Z,0.00
2018-12-01T02:49:36.173Z,0.00
2018-12-01T02:50:36.179Z,0.00
2018-12-01T02:51:36.187Z,0.00
2018-12-01T02:52:36.192Z,0.00
2018-12-01T02:53:36.197Z,0.00
2018-12-01T02:54:36.205Z,0.00
2018-12-01T02:55:36.212Z,0.00
2018-12-01T02:56:36.220Z,0.00
2018-12-01T02:57:36.224Z,0.00
2018-12-01T02:58:36.232Z,0.00
2018-12-01T02:59:36.235Z,0.00
2018-12-01T03:00:36.240Z,0.00
2018-12-01T03:01:36.248Z,0.00
2018-12-01T03:02:36.253Z,0.00
2018-12-01T03:03:36.259Z,0.00
2018-12-01T03:04:36.266Z,0.00
2018-12-01T03:05:36.272Z,0.00
2018-12-01T03:06:36.281Z,0.00
2018-12-01T03:07:36.287Z,0.00
2018-12-01T03:08:36.291Z,0.00
2018-12-01T03:09:36.296Z,0.00
2018-12-01T03:10:36.302Z,0.00
2018-12-01T03:11:36.309Z,0.00
2018-12-01T03:12:36.315Z,0.00
2018-12-01T03:13:36.320Z,0.00
2018-12-01T03:14:36.330Z,0.00
2018-12-01T03:15:36.335Z,0.00
2018-12-01T03:16:36.341Z,0.00
2018-12-01T03:17:36.347Z,0.00
2018-12-01T03:18:36.352Z,0.00
2018-12-01T03:19:36.361Z,0.00
2018-12-01T03:20:36.367Z,0.00
2018-12-01T03:21:36.373Z,0.00
2018-12-01T03:22:36.377Z,0.00
2018-12-01T03:23:36.390Z,0.00
2018-12-01T03:24:36.391Z,0.00
2018-12-01T03:25:36.402Z,0.00
2018-12-01T03:26:36.403Z,0.00
2018-12-01T03:27:36.410Z,0.00
2018-12-01T03:28:36.415Z,0.00
2018-12-01T03:29:36.420Z,0.00
2018-12-01T03:30:36.427Z,0.00
2018-12-01T03:31:36.437Z,0.00
2018-12-01T03:32:36.446Z,0.00
2018-12-01T03:33:36.445Z,0.00
2018-12-01T03:34:36.453Z,0.00
2018-12-01T03:35:36.462Z,0.00
2018-12-01T03:36:36.465Z,0.00
2018-12-01T03:37:36.471Z,0.00
2018-12-01T03:38:36.477Z,0.00
2018-12-01T03:39:36.485Z,0.00
2018-12-01T03:40:36.493Z,0.00
2018-12-01T03:41:36.495Z,0.00
2018-12-01T03:42:36.502Z,0.00
2018-12-01T03:43:36.509Z,0.00
2018-12-01T03:44:36.519Z,0.00
2018-12-01T03:45:36.522Z,0.00
2018-12-01T03:46:36.527Z,0.00
2018-12-01T03:47:36.532Z,0.00
2018-12-01T03:48:36.539Z,0.00
2018-12-01T03:49:36.548Z,0.00
2018-12-01T03:50:36.552Z,0.00
2018-12-01T03:51:36.559Z,0.00
2018-12-01T03:52:36.564Z,0.00
2018-12-01T03:53:36.568Z,0.00
2018-12-01T03:54:36.576Z,0.00
2018-12-01T03:55:36.581Z,0.00
2018-12-01T03:56:36.588Z,0.00
2018-12-01T03:57:36.594Z,0.00
2018-12-01T03:58:36.600Z,0.00
2018-12-01T03:59:36.607Z,0.00
2018-12-01T04:00:36.613Z,0.00
2018-12-01T04:01:36.618Z,0.00
2018-12-01T04:02:36.627Z,0.00
2018-12-01T04:03:36.631Z,0.00
2018-12-01T04:04:36.636Z,0.00
2018-12-01T04:05:36.641Z,0.00
2018-12-01T04:06:36.648Z,0.00
2018-12-01T04:07:36.656Z,0.00
2018-12-01T04:08:36.664Z,0.00
2018-12-01T04:09:36.668Z,0.00
2018-12-01T04:10:36.672Z,0.00
2018-12-01T04:11:36.680Z,0.00
2018-12-01T04:12:36.689Z,0.00
2018-12-01T04:13:36.694Z,0.00
2018-12-01T04:14:36.701Z,0.00
2018-12-01T04:15:36.706Z,0.00
2018-12-01T04:16:36.713Z,0.00
2018-12-01T04:17:36.714Z,0.00
2018-12-01T04:18:36.721Z,0.00
2018-12-01T04:19:36.726Z,0.00
2018-12-01T04:20:36.734Z,0.00
2018-12-01T04:21:36.741Z,0.00
2018-12-01T04:22:36.746Z,0.00
2018-12-01T04:23:36.751Z,0.00
2018-12-01T04:24:36.760Z,0.00
2018-12-01T04:25:36.763Z,0.00
2018-12-01T04:26:36.769Z,0.00
2018-12-01T04:27:36.776Z,0.00
2018-12-01T04:28:36.784Z,0.00
2018-12-01T04:29:36.786Z,0.00
2018-12-01T04:30:36.792Z,0.00
2018-12-01T04:31:36.800Z,0.00
2018-12-01T04:32:36.807Z,0.00
2018-12-01T04:33:36.810Z,0.00
2018-12-01T04:34:36.817Z,0.00
2018-12-01T04:35:36.822Z,0.00
2018-12-01T04:36:36.830Z,0.00
2018-12-01T04:37:36.836Z,0.00
2018-12-01T04:38:36.839Z,0.00
2018-12-01T04:39:36.849Z,0.00
2018-12-01T04:40:36.851Z,0.00
2018-12-01T04:41:36.861Z,0.00
2018-12-01T04:42:36.862Z,0.00
2018-12-01T04:43:36.868Z,0.00
2018-12-01T04:44:36.876Z,0.00
2018-12-01T04:45:36.879Z,0.00
2018-12-01T04:46:36.890Z,0.00
2018-12-01T04:47:36.894Z,0.00
2018-12-01T04:48:36.902Z,0.00
2018-12-01T04:49:36.906Z,0.00
2018-12-01T04:50:36.921Z,0.00
2018-12-01T04:51:36.918Z,0.00
2018-12-01T04:52:36.923Z,0.00
2018-12-01T04:53:36.927Z,0.00
2018-12-01T04:54:36.940Z,0.00
2018-12-01T04:55:36.942Z,0.00
2018-12-01T04:56:36.954Z,0.00
2018-12-01T04:57:36.950Z,0.00
2018-12-01T04:58:36.956Z,0.00
2018-12-01T04:59:36.966Z,0.00
2018-12-01T05:00:36.966Z,0.00
2018-12-01T05:01:36.978Z,0.00
2018-12-01T05:02:36.988Z,0.00
2018-12-01T05:03:36.985Z,0.00
2018-12-01T05:04:36.993Z,0.00
2018-12-01T05:05:36.995Z,0.00
2018-12-01T05:06:37.010Z,0.00
2018-12-01T05:07:37.008Z,0.00
2018-12-01T05:08:37.014Z,0.00
2018-12-01T05:09:37.023Z,0.00
2018-12-01T05:10:37.025Z,0.00
2018-12-01T05:11:37.031Z,0.00
2018-12-01T05:12:37.037Z,0.00
2018-12-01T05:13:37.041Z,0.00
2018-12-01T05:14:37.047Z,0.00
2018-12-01T05:15:37.055Z,0.00
2018-12-01T05:16:37.059Z,0.00
2018-12-01T05:17:37.064Z,0.00
2018-12-01T05:18:37.072Z,0.00
2018-12-01T05:19:37.080Z,0.00
2018-12-01T05:20:37.086Z,0.00
2018-12-01T05:21:37.089Z,0.00
2018-12-01T05:22:37.092Z,0.00
2018-12-01T05:23:37.099Z,0.00
2018-12-01T05:24:37.106Z,0.00
2018-12-01T05:25:37.109Z,0.00
2018-12-01T05:26:37.115Z,0.00
2018-12-01T05:27:37.120Z,0.00
2018-12-01T05:28:37.129Z,0.00
2018-12-01T05:29:37.134Z,0.00
2018-12-01T05:30:37.138Z,0.00
2018-12-01T05:31:37.144Z,0.00
2018-12-01T05:32:37.152Z,0.00
2018-12-01T05:33:37.153Z,0.00
2018-12-01T05:34:37.160Z,0.00
2018-12-01T05:35:37.167Z,0.00
2018-12-01T05:36:37.169Z,0.00
2018-12-01T05:37:37.176Z,0.00
2018-12-01T05:38:37.188Z,0.00
2018-12-01T05:39:37.190Z,0.00
2018-12-01T05:40:37.194Z,0.00
2018-12-01T05:41:37.197Z,0.00
2018-12-01T05:42:37.206Z,0.00
2018-12-01T05:43:37.208Z,0.00
2018-12-01T05:44:37.216Z,0.00
2018-12-01T05:45:37.218Z,0.00
2018-12-01T05:46:37.223Z,0.00
2018-12-01T05:47:37.233Z,0.00
2018-12-01T05:48:37.234Z,0.00
2018-12-01T05:49:37.240Z,0.00
2018-12-01T05:50:37.246Z,0.00
2018-12-01T05:51:37.252Z,0.00
2018-12-01T05:52:37.259Z,0.00
2018-12-01T05:53:37.272Z,0.00
2018-12-01T05:54:37.266Z,0.00
2018-12-01T05:55:37.273Z,0.00
2018-12-01T05:56:37.275Z,0.00
2018-12-01T05:57:37.283Z,0.00
2018-12-01T05:58:37.292Z,0.00
2018-12-01T05:59:37.292Z,0.00
2018-12-01T06:00:37.298Z,0.00
2018-12-01T06:01:37.304Z,0.00
2018-12-01T06:02:37.307Z,0.00
2018-12-01T06:03:37.311Z,0.00
2018-12-01T06:04:37.320Z,0.00
2018-12-01T06:05:37.324Z,0.00
2018-12-01T06:06:37.328Z,0.00
2018-12-01T06:07:37.334Z,0.00
2018-12-01T06:08:37.339Z,0.00
2018-12-01T06:09:37.344Z,0.00
2018-12-01T06:10:37.348Z,0.00
2018-12-01T06:11:37.369Z,0.00
2018-12-01T06:12:37.362Z,0.00
2018-12-01T06:13:37.362Z,0.00
2018-12-01T06:14:37.368Z,0.00
2018-12-01T06:15:37.377Z,0.00
2018-12-01T06:16:37.380Z,0.00
2018-12-01T06:17:37.384Z,0.00
2018-12-01T06:18:37.388Z,0.00
2018-12-01T06:19:37.394Z,0.00
2018-12-01T06:20:37.399Z,0.00
2018-12-01T06:21:37.408Z,0.00
2018-12-01T06:22:37.409Z,0.00
2018-12-01T06:23:37.426Z,0.00
2018-12-01T06:24:37.428Z,0.00
2018-12-01T06:25:37.424Z,0.00
2018-12-01T06:26:37.430Z,0.00
2018-12-01T06:27:37.434Z,0.00
2018-12-01T06:28:37.443Z,0.00
2018-12-01T06:29:37.446Z,0.00
2018-12-01T06:30:37.449Z,0.00
2018-12-01T06:31:37.457Z,0.00
2018-12-01T06:32:37.471Z,0.00
2018-12-01T06:33:37.467Z,4.00
2018-12-01T06:34:37.473Z,0.00
2018-12-01T06:35:37.475Z,0.00
2018-12-01T06:36:37.483Z,0.00
2018-12-01T06:37:37.486Z,4.00
2018-12-01T06:38:37.492Z,0.00
2018-12-01T06:39:37.498Z,0.00
2018-12-01T06:40:37.503Z,0.00
2018-12-01T06:41:37.508Z,4.00
2018-12-01T06:42:37.513Z,4.00
2018-12-01T06:43:37.519Z,0.00
2018-12-01T06:44:37.527Z,0.00
2018-12-01T06:45:37.532Z,4.00
2018-12-01T06:46:37.535Z,4.00
2018-12-01T06:47:37.541Z,8.00
2018-12-01T06:48:37.546Z,4.00
2018-12-01T06:49:37.553Z,4.00
2018-12-01T06:50:37.558Z,8.00
2018-12-01T06:51:37.564Z,8.00
2018-12-01T06:52:37.569Z,8.00
2018-12-01T06:53:37.578Z,8.00
2018-12-01T06:54:37.579Z,4.00
2018-12-01T06:55:37.584Z,8.00
2018-12-01T06:56:37.590Z,8.00
2018-12-01T06:57:37.597Z,12.00
2018-12-01T06:58:37.602Z,12.00
2018-12-01T06:59:37.609Z,12.00
2018-12-01T07:00:37.615Z,12.00
2018-12-01T07:01:37.619Z,12.00
2018-12-01T07:02:37.625Z,12.00
2018-12-01T07:03:37.630Z,16.00
2018-12-01T07:04:37.635Z,16.00
2018-12-01T07:05:37.643Z,16.00
2018-12-01T07:06:37.647Z,16.00
2018-12-01T07:07:37.652Z,16.00
2018-12-01T07:08:37.659Z,20.00
2018-12-01T07:09:37.666Z,16.00
2018-12-01T07:10:37.669Z,20.00
2018-12-01T07:11:37.681Z,20.00
2018-12-01T07:12:37.681Z,20.00
2018-12-01T07:13:37.689Z,24.00
2018-12-01T07:14:37.692Z,24.00
2018-12-01T07:15:37.699Z,24.00
2018-12-01T07:16:37.739Z,24.00
2018-12-01T07:17:37.710Z,24.00
2018-12-01T07:18:37.714Z,24.00
2018-12-01T07:19:37.722Z,28.00
2018-12-01T07:20:37.728Z,28.00
2018-12-01T07:21:37.735Z,28.00
2018-12-01T07:22:37.737Z,28.00
2018-12-01T07:23:37.745Z,28.00
2018-12-01T07:24:37.752Z,32.00
2018-12-01T07:25:37.754Z,32.00
2018-12-01T07:26:37.762Z,32.00
2018-12-01T07:27:37.766Z,32.00
2018-12-01T07:28:37.772Z,32.00
2018-12-01T07:29:37.780Z,36.00
2018-12-01T07:30:37.785Z,32.00
2018-12-01T07:31:37.789Z,32.00
2018-12-01T07:32:37.798Z,32.00
2018-12-01T07:33:37.803Z,32.00
2018-12-01T07:34:37.810Z,32.00
2018-12-01T07:35:37.812Z,32.00
2018-12-01T07:36:37.818Z,32.00
2018-12-01T07:37:37.824Z,32.00
2018-12-01T07:38:37.831Z,32.00
2018-12-01T07:39:37.837Z,36.00
2018-12-01T07:40:37.842Z,32.00
2018-12-01T07:41:37.853Z,32.00
2018-12-01T07:42:37.854Z,36.00
2018-12-01T07:43:37.867Z,36.00
2018-12-01T07:44:37.866Z,40.00
2018-12-01T07:45:37.873Z,44.00
2018-12-01T07:46:37.881Z,44.00
2018-12-01T07:47:37.884Z,52.00
2018-12-01T07:48:37.891Z,56.00
2018-12-01T07:49:37.899Z,60.00
2018-12-01T07:50:37.902Z,60.00
2018-12-01T07:51:37.910Z,64.00
2018-12-01T07:52:37.919Z,68.00
2018-12-01T07:53:37.921Z,68.00
2018-12-01T07:54:37.924Z,68.00
2018-12-01T07:55:37.931Z,64.00
2018-12-01T07:56:37.934Z,64.00
2018-12-01T07:57:37.944Z,64.00
2018-12-01T07:58:37.951Z,72.00
2018-12-01T07:59:37.958Z,80.00
2018-12-01T08:00:37.959Z,88.00
2018-12-01T08:01:37.966Z,96.00
2018-12-01T08:02:37.969Z,120.00
2018-12-01T08:03:37.976Z,140.00
2018-12-01T08:04:37.982Z,132.00
2018-12-01T08:05:37.989Z,120.00
2018-12-01T08:06:37.993Z,120.00
2018-12-01T08:07:38.000Z,116.00
2018-12-01T08:08:38.006Z,112.00
2018-12-01T08:09:38.012Z,132.00
2018-12-01T08:10:38.017Z,160.00
2018-12-01T08:11:38.023Z,168.00
2018-12-01T08:12:38.027Z,188.00
2018-12-01T08:13:38.034Z,176.00
2018-12-01T08:14:38.040Z,180.00
2018-12-01T08:15:38.046Z,192.00
2018-12-01T08:16:38.052Z,212.00
2018-12-01T08:17:38.057Z,280.00
2018-12-01T08:18:38.066Z,300.00
2018-12-01T08:19:38.070Z,308.00
2018-12-01T08:20:38.076Z,284.00
2018-12-01T08:21:38.081Z,288.00
2018-12-01T08:22:38.087Z,300.00
2018-12-01T08:23:38.091Z,332.00
2018-12-01T08:24:38.099Z,352.00
2018-12-01T08:25:38.105Z,376.00
2018-12-01T08:26:38.111Z,376.00
2018-12-01T08:27:38.116Z,372.00
2018-12-01T08:28:38.124Z,372.00
2018-12-01T08:29:38.128Z,364.00
2018-12-01T08:30:38.134Z,328.00
2018-12-01T08:31:38.141Z,292.00
2018-12-01T08:32:38.147Z,240.00
2018-12-01T08:33:38.152Z,200.00
2018-12-01T08:34:38.157Z,176.00
2018-12-01T08:35:38.165Z,156.00
2018-12-01T08:36:38.172Z,160.00
2018-12-01T08:37:38.178Z,164.00
2018-12-01T08:38:38.185Z,156.00
2018-12-01T08:39:38.189Z,152.00
2018-12-01T08:40:38.194Z,152.00
2018-12-01T08:41:38.200Z,152.00
2018-12-01T08:42:38.205Z,156.00
2018-12-01T08:43:38.219Z,168.00
2018-12-01T08:44:38.218Z,184.00
2018-12-01T08:45:38.225Z,204.00
2018-12-01T08:46:38.230Z,216.00
2018-12-01T08:47:38.236Z,232.00
2018-12-01T08:48:38.242Z,268.00
2018-12-01T08:49:38.246Z,296.00
2018-12-01T08:50:38.252Z,308.00
2018-12-01T08:51:38.261Z,312.00
2018-12-01T08:52:38.265Z,316.00
2018-12-01T08:53:38.270Z,316.00
2018-12-01T08:54:38.275Z,320.00
2018-12-01T08:55:38.283Z,316.00
2018-12-01T08:56:38.288Z,304.00
2018-12-01T08:57:38.295Z,300.00
2018-12-01T08:58:38.300Z,292.00
2018-12-01T08:59:38.309Z,288.00
2018-12-01T09:00:38.311Z,288.00
2018-12-01T09:01:38.315Z,288.00
2018-12-01T09:02:38.320Z,280.00
2018-12-01T09:03:38.328Z,268.00
2018-12-01T09:04:38.333Z,256.00
2018-12-01T09:05:38.339Z,256.00
2018-12-01T09:06:38.346Z,252.00
2018-12-01T09:07:38.349Z,268.00
2018-12-01T09:08:38.358Z,284.00
2018-12-01T09:09:38.360Z,312.00
2018-12-01T09:10:38.367Z,336.00
2018-12-01T09:11:38.374Z,376.00
2018-12-01T09:12:38.379Z,448.00
2018-12-01T09:13:38.385Z,792.00
2018-12-01T09:14:38.391Z,1228.00
2018-12-01T09:15:38.397Z,1096.00
2018-12-01T09:16:38.402Z,844.00
2018-12-01T09:17:38.408Z,884.00
2018-12-01T09:18:38.414Z,876.00
2018-12-01T09:19:38.419Z,848.00
2018-12-01T09:20:38.427Z,940.00
2018-12-01T09:21:38.434Z,888.00
2018-12-01T09:22:38.440Z,816.00
2018-12-01T09:23:38.446Z,604.00
2018-12-01T09:24:38.454Z,416.00
2018-12-01T09:25:38.458Z,444.00
2018-12-01T09:26:38.464Z,528.00
2018-12-01T09:27:38.471Z,656.00
2018-12-01T09:28:38.481Z,896.00
2018-12-01T09:29:38.487Z,740.00
2018-12-01T09:30:38.489Z,756.00
2018-12-01T09:31:38.497Z,768.00
2018-12-01T09:32:38.504Z,724.00
2018-12-01T09:33:38.509Z,696.00
2018-12-01T09:34:38.518Z,724.00
2018-12-01T09:35:38.528Z,800.00
2018-12-01T09:36:38.531Z,848.00
2018-12-01T09:37:38.538Z,940.00
2018-12-01T09:38:38.543Z,1084.00
2018-12-01T09:39:38.553Z,508.00
2018-12-01T09:40:38.560Z,340.00
2018-12-01T09:41:38.564Z,328.00
2018-12-01T09:42:38.569Z,292.00
2018-12-01T09:43:38.578Z,260.00
2018-12-01T09:44:38.586Z,252.00
2018-12-01T09:45:38.591Z,204.00
2018-12-01T09:46:38.599Z,192.00
2018-12-01T09:47:38.621Z,232.00
2018-12-01T09:48:38.617Z,264.00
2018-12-01T09:49:38.620Z,292.00
2018-12-01T09:50:38.629Z,300.00
2018-12-01T09:51:38.632Z,312.00
2018-12-01T09:52:38.640Z,328.00
2018-12-01T09:53:38.646Z,308.00
2018-12-01T09:54:38.653Z,300.00
2018-12-01T09:55:38.660Z,292.00
2018-12-01T09:56:38.667Z,276.00
2018-12-01T09:57:38.671Z,280.00
2018-12-01T09:58:38.678Z,272.00
2018-12-01T09:59:38.685Z,260.00
2018-12-01T10:00:38.695Z,256.00
2018-12-01T10:01:38.707Z,268.00
2018-12-01T10:02:38.705Z,252.00
2018-12-01T10:03:38.708Z,268.00
2018-12-01T10:04:38.714Z,264.00
2018-12-01T10:05:38.721Z,260.00
2018-12-01T10:06:38.728Z,264.00
2018-12-01T10:07:38.735Z,296.00
2018-12-01T10:08:38.745Z,300.00
2018-12-01T10:09:38.755Z,344.00
2018-12-01T10:10:38.756Z,272.00
2018-12-01T10:11:38.758Z,256.00
2018-12-01T10:12:38.768Z,240.00
2018-12-01T10:13:38.770Z,248.00
2018-12-01T10:14:38.777Z,256.00
2018-12-01T10:15:38.785Z,304.00
2018-12-01T10:16:38.789Z,344.00
2018-12-01T10:17:38.793Z,336.00
2018-12-01T10:18:38.800Z,276.00
2018-12-01T10:19:38.807Z,264.00
2018-12-01T10:20:38.913Z,196.00
2018-12-01T10:21:38.821Z,208.00
2018-12-01T10:22:38.825Z,216.00
2018-12-01T10:23:38.833Z,212.00
2018-12-01T10:24:38.839Z,200.00
2018-12-01T10:25:38.846Z,196.00
2018-12-01T10:26:38.849Z,204.00
2018-12-01T10:27:38.855Z,224.00
2018-12-01T10:28:38.861Z,228.00
2018-12-01T10:29:38.866Z,244.00
2018-12-01T10:30:38.874Z,280.00
2018-12-01T10:31:38.878Z,284.00
2018-12-01T10:32:38.889Z,268.00
2018-12-01T10:33:38.892Z,292.00
2018-12-01T10:34:38.906Z,316.00
2018-12-01T10:35:38.906Z,316.00
2018-12-01T10:36:38.914Z,300.00
2018-12-01T10:37:38.918Z,300.00
2018-12-01T10:38:38.920Z,276.00
2018-12-01T10:39:38.926Z,248.00
2018-12-01T10:40:38.934Z,256.00
2018-12-01T10:41:38.940Z,308.00
2018-12-01T10:42:38.948Z,548.00
2018-12-01T10:43:38.960Z,944.00
2018-12-01T10:44:38.957Z,1264.00
2018-12-01T10:45:38.962Z,1160.00
2018-12-01T10:46:38.969Z,960.00
2018-12-01T10:47:38.977Z,716.00
2018-12-01T10:48:38.984Z,984.00
2018-12-01T10:49:38.987Z,824.00
2018-12-01T10:50:39.010Z,940.00
2018-12-01T10:51:39.001Z,1128.00
2018-12-01T10:52:39.007Z,1036.00
2018-12-01T10:53:39.016Z,1028.00
2018-12-01T10:54:39.031Z,996.00
2018-12-01T10:55:39.028Z,992.00
2018-12-01T10:56:39.036Z,988.00
2018-12-01T10:57:39.039Z,768.00
2018-12-01T10:58:39.048Z,468.00
2018-12-01T10:59:39.054Z,464.00
2018-12-01T11:00:39.062Z,344.00
2018-12-01T11:01:39.067Z,336.00
2018-12-01T11:02:39.075Z,396.00
2018-12-01T11:03:39.086Z,340.00
2018-12-01T11:04:39.089Z,360.00
2018-12-01T11:05:39.095Z,424.00
2018-12-01T11:06:39.105Z,456.00
2018-12-01T11:07:39.109Z,372.00
2018-12-01T11:08:39.117Z,392.00
2018-12-01T11:09:39.122Z,416.00
2018-12-01T11:10:39.136Z,476.00
2018-12-01T11:11:39.140Z,580.00
2018-12-01T11:12:39.146Z,840.00
2018-12-01T11:13:39.153Z,592.00
2018-12-01T11:14:39.160Z,732.00
2018-12-01T11:15:39.165Z,552.00
2018-12-01T11:16:39.175Z,660.00
2018-12-01T11:17:39.180Z,784.00
2018-12-01T11:18:39.187Z,716.00
2018-12-01T11:19:39.196Z,884.00
2018-12-01T11:20:39.206Z,572.00
2018-12-01T11:21:39.211Z,532.00
2018-12-01T11:22:39.215Z,476.00
2018-12-01T11:23:39.223Z,480.00
2018-12-01T11:24:39.233Z,484.00
2018-12-01T11:25:39.236Z,372.00
2018-12-01T11:26:39.243Z,332.00
2018-12-01T11:27:39.251Z,372.00
2018-12-01T11:28:39.303Z,460.00
2018-12-01T11:29:39.266Z,472.00
2018-12-01T11:30:39.273Z,484.00
2018-12-01T11:31:39.283Z,712.00
2018-12-01T11:32:39.288Z,1316.00
2018-12-01T11:33:39.295Z,1408.00
2018-12-01T11:34:39.302Z,1436.00
2018-12-01T11:35:39.309Z,840.00
2018-12-01T11:36:39.316Z,1048.00
2018-12-01T11:37:39.324Z,936.00
2018-12-01T11:38:39.334Z,1252.00
2018-12-01T11:39:39.338Z,1236.00
2018-12-01T11:40:39.346Z,1236.00
2018-12-01T11:41:39.352Z,1244.00
2018-12-01T11:42:39.360Z,1324.00
2018-12-01T11:43:39.369Z,432.00
2018-12-01T11:44:39.377Z,488.00
2018-12-01T11:45:39.384Z,504.00
2018-12-01T11:46:39.397Z,592.00
2018-12-01T11:47:39.401Z,432.00
2018-12-01T11:48:39.422Z,364.00
2018-12-01T11:49:39.417Z,332.00
2018-12-01T11:50:39.429Z,288.00
2018-12-01T11:51:39.435Z,256.00
2018-12-01T11:52:39.441Z,244.00
2018-12-01T11:53:39.448Z,232.00
2018-12-01T11:54:39.459Z,236.00
2018-12-01T11:55:39.464Z,268.00
2018-12-01T11:56:39.475Z,340.00
2018-12-01T11:57:39.480Z,396.00
2018-12-01T11:58:39.491Z,408.00
2018-12-01T11:59:39.502Z,364.00
2018-12-01T12:00:39.508Z,324.00
2018-12-01T12:01:39.515Z,292.00
2018-12-01T12:02:39.524Z,332.00
2018-12-01T12:03:39.531Z,444.00
2018-12-01T12:04:39.538Z,536.00
2018-12-01T12:05:39.545Z,624.00
2018-12-01T12:06:39.553Z,516.00
2018-12-01T12:07:39.567Z,700.00
2018-12-01T12:08:39.571Z,332.00
2018-12-01T12:09:39.579Z,336.00
2018-12-01T12:10:39.589Z,372.00
2018-12-01T12:11:39.594Z,376.00
2018-12-01T12:12:39.602Z,456.00
2018-12-01T12:13:39.609Z,888.00
2018-12-01T12:14:39.618Z,1524.00
2018-12-01T12:15:39.636Z,1596.00
2018-12-01T12:16:39.636Z,1404.00
2018-12-01T12:17:39.646Z,1160.00
2018-12-01T12:18:39.658Z,996.00
2018-12-01T12:19:39.673Z,1132.00
2018-12-01T12:20:39.667Z,892.00
2018-12-01T12:21:39.678Z,732.00
2018-12-01T12:22:39.684Z,544.00
2018-12-01T12:23:39.694Z,648.00
2018-12-01T12:24:39.702Z,1136.00
2018-12-01T12:25:40.445Z,1604.00
2018-12-01T12:26:39.722Z,1188.00
2018-12-01T12:27:39.732Z,1376.00
2018-12-01T12:28:39.738Z,1384.00
2018-12-01T12:29:39.747Z,1344.00
2018-12-01T12:30:39.755Z,1344.00
2018-12-01T12:31:39.767Z,1148.00
2018-12-01T12:32:39.777Z,1404.00
2018-12-01T12:33:39.784Z,1388.00
2018-12-01T12:34:39.795Z,624.00
2018-12-01T12:35:39.805Z,588.00
2018-12-01T12:36:39.814Z,620.00
2018-12-01T12:37:39.822Z,612.00
2018-12-01T12:38:39.833Z,708.00
2018-12-01T12:39:39.843Z,784.00
2018-12-01T12:40:39.856Z,536.00
2018-12-01T12:41:39.861Z,564.00
2018-12-01T12:42:39.870Z,604.00
2018-12-01T12:43:39.881Z,652.00
2018-12-01T12:44:39.916Z,852.00
2018-12-01T12:45:39.901Z,1048.00
2018-12-01T12:46:39.911Z,884.00
2018-12-01T12:47:39.917Z,956.00
2018-12-01T12:48:39.931Z,896.00
2018-12-01T12:49:39.937Z,908.00
2018-12-01T12:50:39.947Z,904.00
2018-12-01T12:51:39.956Z,860.00
2018-12-01T12:52:39.967Z,820.00
2018-12-01T12:53:39.973Z,808.00
2018-12-01T12:54:39.986Z,792.00
2018-12-01T12:55:39.995Z,760.00